createdAt,value
2023-05-03T00:00:03.600Z,9.681018
2023-05-03T00:01:03.342Z,9.681037
2023-05-03T00:02:03.291Z,9.681082
2023-05-03T00:03:03.336Z,9.681070
2023-05-03T00:04:03.287Z,9.681049
2023-05-03T00:05:03.948Z,9.681074
2023-05-03T00:06:03.310Z,9.681042
2023-05-03T00:07:03.283Z,9.681044
2023-05-03T00:08:03.242Z,9.681002
2023-05-03T00:09:03.338Z,9.681060
2023-05-03T00:10:03.405Z,9.681048
2023-05-03T00:11:03.254Z,9.681086
2023-05-03T00:12:03.207Z,9.681079
2023-05-03T00:13:03.262Z,9.681029
2023-05-03T00:14:03.203Z,9.681061
2023-05-03T00:15:03.298Z,9.681102
2023-05-03T00:16:03.199Z,9.681084
2023-05-03T00:17:03.242Z,9.681056
2023-05-03T00:18:03.219Z,9.681069
2023-05-03T00:19:03.189Z,9.681068
2023-05-03T00:20:03.419Z,9.681036
2023-05-03T00:21:03.193Z,9.681084
2023-05-03T00:22:03.162Z,9.681046
2023-05-03T00:23:03.164Z,9.681003
2023-05-03T00:24:03.139Z,9.681075
2023-05-03T00:25:03.157Z,9.681059
2023-05-03T00:26:03.139Z,9.681001
2023-05-03T00:27:03.148Z,9.681027
2023-05-03T00:28:03.118Z,9.680966
2023-05-03T00:29:03.142Z,9.680996
2023-05-03T00:30:03.424Z,9.680976
2023-05-03T00:31:03.179Z,9.681213
2023-05-03T00:32:03.121Z,9.681085
2023-05-03T00:33:03.157Z,9.681193
2023-05-03T00:34:03.082Z,9.681160
2023-05-03T00:35:03.120Z,9.681210
2023-05-03T00:36:03.101Z,9.681170
2023-05-03T00:37:03.086Z,9.681140
2023-05-03T00:38:03.050Z,9.681118
2023-05-03T00:39:03.087Z,9.681175
2023-05-03T00:40:03.204Z,9.681190
2023-05-03T00:41:03.079Z,9.681309
2023-05-03T00:42:03.056Z,9.681138
2023-05-03T00:43:03.122Z,9.681200
2023-05-03T00:44:03.020Z,9.681056
2023-05-03T00:45:03.028Z,9.681099
2023-05-03T00:46:15.263Z,9.681087
2023-05-03T00:47:04.030Z,9.681057
2023-05-03T00:48:03.072Z,9.681018
2023-05-03T00:49:03.034Z,9.681062
2023-05-03T00:50:03.254Z,9.681076
2023-05-03T00:51:02.997Z,9.681082
2023-05-03T00:52:02.992Z,9.681057
2023-05-03T00:53:03.008Z,9.681056
2023-05-03T00:54:02.956Z,9.681015
2023-05-03T00:55:03.023Z,9.681072
2023-05-03T00:56:02.947Z,9.681057
2023-05-03T00:57:02.952Z,9.681068
2023-05-03T00:58:02.935Z,9.681191
2023-05-03T00:59:02.984Z,9.681187
2023-05-03T01:00:03.072Z,9.681238
2023-05-03T01:01:02.996Z,9.681122
2023-05-03T01:02:02.964Z,9.681123
2023-05-03T01:03:03.021Z,9.680960
2023-05-03T01:04:03.003Z,9.680875
2023-05-03T01:05:02.920Z,9.681112
2023-05-03T01:06:02.984Z,9.681203
2023-05-03T01:07:02.920Z,9.681314
2023-05-03T01:08:02.870Z,9.681220
2023-05-03T01:09:02.903Z,9.681083
2023-05-03T01:10:03.033Z,9.681264
2023-05-03T01:11:02.953Z,9.681569
2023-05-03T01:12:02.854Z,9.681212
2023-05-03T01:13:02.878Z,9.681120
2023-05-03T01:14:02.837Z,9.681091
2023-05-03T01:15:02.830Z,9.681030
2023-05-03T01:16:02.957Z,9.681027
2023-05-03T01:17:02.833Z,9.681073
2023-05-03T01:18:02.852Z,9.681078
2023-05-03T01:19:02.834Z,9.681059
2023-05-03T01:20:02.992Z,9.681017
2023-05-03T01:21:02.784Z,9.681070
2023-05-03T01:22:02.795Z,9.681082
2023-05-03T01:23:02.803Z,9.681033
2023-05-03T01:24:02.793Z,9.681023
2023-05-03T01:25:02.769Z,9.681039
2023-05-03T01:26:02.747Z,9.681072
2023-05-03T01:27:02.775Z,9.681061
2023-05-03T01:28:02.720Z,9.680991
2023-05-03T01:29:02.737Z,9.681074
2023-05-03T01:30:03.057Z,9.681098
2023-05-03T01:31:02.723Z,9.681091
2023-05-03T01:32:02.784Z,9.681069
2023-05-03T01:33:02.758Z,9.681083
2023-05-03T01:34:02.701Z,9.681108
2023-05-03T01:35:02.720Z,9.681066
2023-05-03T01:36:02.691Z,9.681057
2023-05-03T01:37:02.689Z,9.681087
2023-05-03T01:38:02.708Z,9.681097
2023-05-03T01:39:02.681Z,9.680958
2023-05-03T01:40:02.779Z,9.681110
2023-05-03T01:41:02.673Z,9.681062
2023-05-03T01:42:02.652Z,9.681047
2023-05-03T01:43:02.673Z,9.681124
2023-05-03T01:44:02.646Z,9.681136
2023-05-03T01:45:02.650Z,9.681280
2023-05-03T01:46:02.667Z,9.681211
2023-05-03T01:47:02.622Z,9.681102
2023-05-03T01:48:02.670Z,9.681114
2023-05-03T01:49:02.676Z,9.681154
2023-05-03T01:50:02.929Z,9.681260
2023-05-03T01:51:02.605Z,9.681190
2023-05-03T01:52:02.614Z,9.681106
2023-05-03T01:53:02.579Z,9.681176
2023-05-03T01:54:02.584Z,9.681046
2023-05-03T01:55:02.576Z,9.681049
2023-05-03T01:56:02.557Z,9.681059
2023-05-03T01:57:02.556Z,9.681149
2023-05-03T01:58:02.557Z,9.681083
2023-05-03T01:59:02.619Z,9.681083
2023-05-03T02:00:02.743Z,9.681134
2023-05-03T02:01:02.551Z,9.681173
2023-05-03T02:02:02.507Z,9.681118
2023-05-03T02:03:02.546Z,9.681035
2023-05-03T02:04:02.542Z,9.681081
2023-05-03T02:05:02.528Z,9.681054
2023-05-03T02:06:02.550Z,9.681069
2023-05-03T02:07:02.502Z,9.681014
2023-05-03T02:08:02.521Z,9.681085
2023-05-03T02:09:02.507Z,9.681159
2023-05-03T02:10:02.733Z,9.681142
2023-05-03T02:11:02.455Z,9.681149
2023-05-03T02:12:02.454Z,9.681157
2023-05-03T02:13:02.449Z,9.681102
2023-05-03T02:14:02.474Z,9.681046
2023-05-03T02:15:02.440Z,9.681181
2023-05-03T02:16:02.428Z,9.681258
2023-05-03T02:17:02.455Z,9.681033
2023-05-03T02:18:02.598Z,9.681210
2023-05-03T02:19:02.453Z,9.680986
2023-05-03T02:20:02.620Z,9.681069
2023-05-03T02:21:02.592Z,9.681075
2023-05-03T02:22:02.398Z,9.681140
2023-05-03T02:23:02.379Z,9.681093
2023-05-03T02:24:02.413Z,9.681067
2023-05-03T02:25:02.386Z,9.681104
2023-05-03T02:26:02.358Z,9.681137
2023-05-03T02:27:02.384Z,9.681022
2023-05-03T02:28:02.365Z,9.681008
2023-05-03T02:29:02.354Z,9.681130
2023-05-03T02:30:02.616Z,9.681200
2023-05-03T02:31:02.452Z,9.681231
2023-05-03T02:32:02.321Z,9.681268
2023-05-03T02:33:02.353Z,9.681118
2023-05-03T02:34:02.316Z,9.681171
2023-05-03T02:35:02.302Z,9.681131
2023-05-03T02:36:02.313Z,9.681155
2023-05-03T02:37:02.316Z,9.681105
2023-05-03T02:38:02.276Z,9.681155
2023-05-03T02:39:02.340Z,9.681037
2023-05-03T02:40:02.467Z,9.681147
2023-05-03T02:41:02.298Z,9.681155
2023-05-03T02:42:02.256Z,9.681211
2023-05-03T02:43:02.272Z,9.681380
2023-05-03T02:44:02.275Z,9.681363
2023-05-03T02:45:02.267Z,9.681109
2023-05-03T02:46:02.341Z,9.681069
2023-05-03T02:47:02.246Z,9.681120
2023-05-03T02:48:02.229Z,9.681078
2023-05-03T02:49:02.234Z,9.681104
2023-05-03T02:50:02.507Z,9.681124
2023-05-03T02:51:02.233Z,9.681152
2023-05-03T02:52:02.208Z,9.681210
2023-05-03T02:53:02.207Z,9.681150
2023-05-03T02:54:02.170Z,9.681185
2023-05-03T02:55:02.172Z,9.681085
2023-05-03T02:56:02.155Z,9.681080
2023-05-03T02:57:02.248Z,9.681135
2023-05-03T02:58:02.136Z,9.681140
2023-05-03T02:59:02.184Z,9.681081
2023-05-03T03:00:02.533Z,9.681112
2023-05-03T03:01:02.128Z,9.681084
2023-05-03T03:02:02.183Z,9.681021
2023-05-03T03:03:02.206Z,9.681130
2023-05-03T03:04:02.240Z,9.681119
2023-05-03T03:05:02.154Z,9.681109
2023-05-03T03:06:02.203Z,9.681075
2023-05-03T03:07:02.143Z,9.681064
2023-05-03T03:08:02.098Z,9.681066
2023-05-03T03:09:02.106Z,9.681051
2023-05-03T03:10:02.229Z,9.681045
2023-05-03T03:11:02.072Z,9.681045
2023-05-03T03:12:02.044Z,9.680979
2023-05-03T03:13:02.099Z,9.681096
2023-05-03T03:14:02.034Z,9.681002
2023-05-03T03:15:02.061Z,9.681087
2023-05-03T03:16:02.100Z,9.681159
2023-05-03T03:17:02.068Z,9.681170
2023-05-03T03:18:02.027Z,9.681119
2023-05-03T03:19:02.020Z,9.681092
2023-05-03T03:20:02.240Z,9.681109
2023-05-03T03:21:02.010Z,9.681027
2023-05-03T03:22:02.029Z,9.681055
2023-05-03T03:23:02.005Z,9.681026
2023-05-03T03:24:01.975Z,9.681063
2023-05-03T03:25:01.972Z,9.681052
2023-05-03T03:26:01.958Z,9.681045
2023-05-03T03:27:01.970Z,9.681051
2023-05-03T03:28:01.964Z,9.681055
2023-05-03T03:29:01.992Z,9.681033
2023-05-03T03:30:02.139Z,9.681008
2023-05-03T03:31:01.937Z,9.681047
2023-05-03T03:32:02.056Z,9.681060
2023-05-03T03:33:02.072Z,9.681045
2023-05-03T03:34:01.895Z,9.681069
2023-05-03T03:35:01.954Z,9.681055
2023-05-03T03:36:01.955Z,9.681069
2023-05-03T03:37:01.903Z,9.681063
2023-05-03T03:38:01.868Z,9.681020
2023-05-03T03:39:01.921Z,9.681072
2023-05-03T03:40:02.028Z,9.681070
2023-05-03T03:41:01.871Z,9.680991
2023-05-03T03:42:01.871Z,9.681019
2023-05-03T03:43:01.883Z,9.681073
2023-05-03T03:44:01.889Z,9.681142
2023-05-03T03:45:01.895Z,9.681085
2023-05-03T03:46:01.831Z,9.681067
2023-05-03T03:47:01.914Z,9.681076
2023-05-03T03:48:01.895Z,9.681027
2023-05-03T03:49:01.838Z,9.680948
2023-05-03T03:50:02.046Z,9.680949
2023-05-03T03:51:01.805Z,9.681048
2023-05-03T03:52:01.801Z,9.681051
2023-05-03T03:53:01.793Z,9.681042
2023-05-03T03:54:01.773Z,9.681092
2023-05-03T03:55:01.772Z,9.681048
2023-05-03T03:56:01.771Z,9.681006
2023-05-03T03:57:01.796Z,9.681004
2023-05-03T03:58:01.785Z,9.681013
2023-05-03T03:59:01.756Z,9.680973
2023-05-03T04:00:02.068Z,9.680994
2023-05-03T04:01:01.773Z,9.680940
2023-05-03T04:02:01.815Z,9.681065
2023-05-03T04:03:01.829Z,9.681086
2023-05-03T04:04:01.907Z,9.681005
2023-05-03T04:05:01.712Z,9.680995
2023-05-03T04:06:01.772Z,9.681019
2023-05-03T04:07:01.739Z,9.681093
2023-05-03T04:08:01.681Z,9.681133
2023-05-03T04:09:01.690Z,9.681099
2023-05-03T04:10:01.958Z,9.681104
2023-05-03T04:11:01.679Z,9.681035
2023-05-03T04:12:01.653Z,9.680993
2023-05-03T04:13:01.687Z,9.680947
2023-05-03T04:14:01.651Z,9.681045
2023-05-03T04:15:01.653Z,9.681001
2023-05-03T04:16:02.599Z,9.681003
2023-05-03T04:17:01.755Z,9.680992
2023-05-03T04:18:01.678Z,9.681007
2023-05-03T04:19:01.666Z,9.680987
2023-05-03T04:20:01.832Z,9.681046
2023-05-03T04:21:01.614Z,9.681062
2023-05-03T04:22:01.605Z,9.681014
2023-05-03T04:23:01.593Z,9.681001
2023-05-03T04:24:01.599Z,9.681047
2023-05-03T04:25:01.628Z,9.681053
2023-05-03T04:26:02.647Z,9.681062
2023-05-03T04:27:01.662Z,9.681054
2023-05-03T04:28:01.566Z,9.681051
2023-05-03T04:29:01.570Z,9.681035
2023-05-03T04:30:01.879Z,9.681045
2023-05-03T04:31:01.564Z,9.681081
2023-05-03T04:32:01.516Z,9.681012
2023-05-03T04:33:01.591Z,9.681032
2023-05-03T04:34:01.525Z,9.681092
2023-05-03T04:35:01.515Z,9.681098
2023-05-03T04:36:01.511Z,9.681081
2023-05-03T04:37:01.503Z,9.681041
2023-05-03T04:38:01.512Z,9.681049
2023-05-03T04:39:01.506Z,9.681044
2023-05-03T04:40:01.645Z,9.681006
2023-05-03T04:41:01.509Z,9.680983
2023-05-03T04:42:01.498Z,9.681066
2023-05-03T04:43:01.456Z,9.681097
2023-05-03T04:44:01.464Z,9.681064
2023-05-03T04:45:01.447Z,9.681087
2023-05-03T04:46:01.447Z,9.681110
2023-05-03T04:47:01.447Z,9.680979
2023-05-03T04:48:01.516Z,9.680950
2023-05-03T04:49:01.417Z,9.681052
2023-05-03T04:50:01.764Z,9.681021
2023-05-03T04:51:01.436Z,9.680982
2023-05-03T04:52:01.396Z,9.680995
2023-05-03T04:53:01.435Z,9.680951
2023-05-03T04:54:01.384Z,9.680969
2023-05-03T04:55:01.396Z,9.680924
2023-05-03T04:56:01.434Z,9.680933
2023-05-03T04:57:01.380Z,9.681030
2023-05-03T04:58:01.370Z,9.681033
2023-05-03T04:59:01.356Z,9.681048
2023-05-03T05:00:01.703Z,9.681039
2023-05-03T05:01:01.347Z,9.680956
2023-05-03T05:02:01.368Z,9.680985
2023-05-03T05:03:01.483Z,9.680955
2023-05-03T05:04:01.390Z,9.680943
2023-05-03T05:05:01.309Z,9.681044
2023-05-03T05:06:01.361Z,9.681090
2023-05-03T05:07:01.339Z,9.680951
2023-05-03T05:08:01.289Z,9.680923
2023-05-03T05:09:01.312Z,9.681035
2023-05-03T05:10:01.479Z,9.681064
2023-05-03T05:11:01.295Z,9.681046
2023-05-03T05:12:01.412Z,9.681057
2023-05-03T05:13:01.280Z,9.680998
2023-05-03T05:14:01.274Z,9.680826
2023-05-03T05:15:01.291Z,9.680915
2023-05-03T05:16:01.279Z,9.680963
2023-05-03T05:17:01.260Z,9.681010
2023-05-03T05:18:01.272Z,9.680973
2023-05-03T05:19:01.251Z,9.681039
2023-05-03T05:20:01.563Z,9.681022
2023-05-03T05:21:01.263Z,9.681063
2023-05-03T05:22:01.229Z,9.680970
2023-05-03T05:23:01.252Z,9.681008
2023-05-03T05:24:01.189Z,9.680941
2023-05-03T05:25:01.256Z,9.681036
2023-05-03T05:26:01.185Z,9.681135
2023-05-03T05:27:01.185Z,9.681077
2023-05-03T05:28:01.170Z,9.680899
2023-05-03T05:29:01.192Z,9.680872
2023-05-03T05:30:01.328Z,9.680844
2023-05-03T05:31:01.201Z,9.680966
2023-05-03T05:32:01.271Z,9.681043
2023-05-03T05:33:01.207Z,9.681162
2023-05-03T05:34:01.159Z,9.681095
2023-05-03T05:35:01.149Z,9.681005
2023-05-03T05:36:01.120Z,9.681034
2023-05-03T05:37:01.147Z,9.681110
2023-05-03T05:38:01.143Z,9.680965
2023-05-03T05:39:01.146Z,9.681083
2023-05-03T05:40:01.589Z,9.681026
2023-05-03T05:41:01.112Z,9.681018
2023-05-03T05:42:01.092Z,9.681052
2023-05-03T05:43:01.115Z,9.681126
2023-05-03T05:44:01.102Z,9.681055
2023-05-03T05:45:01.086Z,9.681055
2023-05-03T05:46:01.077Z,9.681048
2023-05-03T05:47:01.133Z,9.681018
2023-05-03T05:48:01.142Z,9.680957
2023-05-03T05:49:01.071Z,9.680995
2023-05-03T05:50:01.207Z,9.680980
2023-05-03T05:51:01.051Z,9.680997
2023-05-03T05:52:01.049Z,9.681030
2023-05-03T05:53:01.048Z,9.681159
2023-05-03T05:54:01.044Z,9.681120
2023-05-03T05:55:01.028Z,9.680993
2023-05-03T05:56:01.000Z,9.681032
2023-05-03T05:57:01.033Z,9.681072
2023-05-03T05:58:01.018Z,9.681154
2023-05-03T05:59:01.055Z,9.681070
2023-05-03T06:00:01.254Z,9.681182
2023-05-03T06:01:00.985Z,9.681213
2023-05-03T06:02:01.013Z,9.681161
2023-05-03T06:03:01.024Z,9.680993
2023-05-03T06:04:00.959Z,9.680758
2023-05-03T06:05:01.009Z,9.680981
2023-05-03T06:06:01.033Z,9.681018
2023-05-03T06:07:00.976Z,9.681106
2023-05-03T06:08:00.966Z,9.681067
2023-05-03T06:09:04.742Z,9.681045
2023-05-03T06:10:02.206Z,9.680953
2023-05-03T06:11:00.958Z,9.681052
2023-05-03T06:12:00.918Z,9.681017
2023-05-03T06:13:00.966Z,9.680998
2023-05-03T06:14:00.912Z,9.681022
2023-05-03T06:15:02.829Z,9.681007
2023-05-03T06:16:00.891Z,9.680994
2023-05-03T06:17:00.944Z,9.681098
2023-05-03T06:18:00.935Z,9.681041
2023-05-03T06:19:00.900Z,9.681017
2023-05-03T06:20:01.022Z,9.681023
2023-05-03T06:21:00.986Z,9.680923
2023-05-03T06:22:00.874Z,9.680924
2023-05-03T06:23:00.856Z,9.681000
2023-05-03T06:24:00.831Z,9.681025
2023-05-03T06:25:00.855Z,9.681054
2023-05-03T06:26:00.828Z,9.681024
2023-05-03T06:27:00.857Z,9.681033
2023-05-03T06:28:00.809Z,9.681030
2023-05-03T06:29:00.878Z,9.681063
2023-05-03T06:30:00.999Z,9.681076
2023-05-03T06:31:00.849Z,9.681011
2023-05-03T06:32:00.786Z,9.681006
2023-05-03T06:33:00.824Z,9.680992
2023-05-03T06:34:00.783Z,9.680874
2023-05-03T06:35:00.781Z,9.681007
2023-05-03T06:36:00.756Z,9.681005
2023-05-03T06:37:00.769Z,9.681050
2023-05-03T06:38:00.754Z,9.680977
2023-05-03T06:39:00.775Z,9.680977
2023-05-03T06:40:00.810Z,9.680983
2023-05-03T06:41:00.750Z,9.680955
2023-05-03T06:42:00.740Z,9.681024
2023-05-03T06:43:00.752Z,9.681026
2023-05-03T06:44:00.736Z,9.681042
2023-05-03T06:45:00.718Z,9.681067
2023-05-03T06:46:00.788Z,9.681025
2023-05-03T06:47:00.750Z,9.681071
2023-05-03T06:48:00.716Z,9.681013
2023-05-03T06:49:00.760Z,9.680976
2023-05-03T06:50:00.784Z,9.680985
2023-05-03T06:51:00.683Z,9.681018
2023-05-03T06:52:00.662Z,9.680983
2023-05-03T06:53:00.667Z,9.681048
2023-05-03T06:54:00.672Z,9.681068
2023-05-03T06:55:00.676Z,9.681051
2023-05-03T06:56:00.616Z,9.681037
2023-05-03T06:57:00.637Z,9.681091
2023-05-03T06:58:00.635Z,9.681083
2023-05-03T06:59:00.617Z,9.681111
2023-05-03T07:00:00.856Z,9.681016
2023-05-03T07:01:00.654Z,9.681038
2023-05-03T07:02:00.730Z,9.681018
2023-05-03T07:03:00.711Z,9.680938
2023-05-03T07:04:00.692Z,9.681126
2023-05-03T07:05:00.598Z,9.680979
2023-05-03T07:06:00.551Z,9.680989
2023-05-03T07:07:00.684Z,9.680928
2023-05-03T07:08:00.604Z,9.680999
2023-05-03T07:09:00.551Z,9.680966
2023-05-03T07:10:00.634Z,9.680939
2023-05-03T07:11:00.581Z,9.680991
2023-05-03T07:12:00.531Z,9.681044
2023-05-03T07:13:00.521Z,9.681049
2023-05-03T07:14:00.495Z,9.681041
2023-05-03T07:15:00.583Z,9.680980
2023-05-03T07:16:03.385Z,9.680995
2023-05-03T07:17:00.540Z,9.681014
2023-05-03T07:18:00.510Z,9.680987
2023-05-03T07:19:00.468Z,9.680993
2023-05-03T07:20:00.542Z,9.680968
2023-05-03T07:21:00.477Z,9.680952
2023-05-03T07:22:00.537Z,9.680968
2023-05-03T07:23:00.448Z,9.680986
2023-05-03T07:24:00.419Z,9.681028
2023-05-03T07:25:00.452Z,9.681003
2023-05-03T07:26:00.400Z,9.680973
2023-05-03T07:27:00.424Z,9.681006
2023-05-03T07:28:00.476Z,9.680996
2023-05-03T07:29:00.400Z,9.681013
2023-05-03T07:30:00.423Z,9.681028
2023-05-03T07:31:00.383Z,9.680989
2023-05-03T07:32:00.365Z,9.680900
2023-05-03T07:33:00.485Z,9.680952
2023-05-03T07:34:00.375Z,9.681063
2023-05-03T07:35:00.379Z,9.680993
2023-05-03T07:36:00.328Z,9.681041
2023-05-03T07:37:00.327Z,9.681063
2023-05-03T07:38:00.320Z,9.681058
2023-05-03T07:39:00.318Z,9.681037
2023-05-03T07:40:00.616Z,9.680986
2023-05-03T07:41:00.318Z,9.680981
2023-05-03T07:42:00.290Z,9.680989
2023-05-03T07:43:00.300Z,9.681034
2023-05-03T07:44:00.292Z,9.681010
2023-05-03T07:45:00.308Z,9.681012
2023-05-03T07:46:00.332Z,9.680984
2023-05-03T07:47:00.340Z,9.680942
2023-05-03T07:48:00.360Z,9.681010
2023-05-03T07:49:00.252Z,9.680952
2023-05-03T07:50:00.439Z,9.681005
2023-05-03T07:51:00.242Z,9.681000
2023-05-03T07:52:00.185Z,9.680942
2023-05-03T07:53:00.192Z,9.680920
2023-05-03T07:54:00.213Z,9.680971
2023-05-03T07:55:00.250Z,9.680986
2023-05-03T07:56:00.180Z,9.681049
2023-05-03T07:57:00.182Z,9.681019
2023-05-03T07:58:00.191Z,9.681041
2023-05-03T07:59:08.599Z,9.681034
2023-05-03T08:00:01.268Z,9.681058
2023-05-03T08:01:00.176Z,9.680961
2023-05-03T08:02:01.753Z,9.681082
2023-05-03T08:03:00.553Z,9.681126
2023-05-03T08:04:00.308Z,9.681165
2023-05-03T08:05:00.472Z,9.681105
2023-05-03T08:06:00.130Z,9.681076
2023-05-03T08:07:00.156Z,9.681088
2023-05-03T08:08:00.069Z,9.681099
2023-05-03T08:09:00.065Z,9.681129
2023-05-03T08:10:00.098Z,9.681110
2023-05-03T08:11:00.050Z,9.681079
2023-05-03T08:12:00.008Z,9.681079
2023-05-03T08:13:00.043Z,9.681068
2023-05-03T08:14:00.030Z,9.681129
2023-05-03T08:15:00.019Z,9.681129
2023-05-03T08:16:00.042Z,9.681140
2023-05-03T08:16:59.999Z,9.681147
2023-05-03T08:18:00.034Z,9.681165
2023-05-03T08:18:59.994Z,9.681104
2023-05-03T08:19:59.971Z,9.681201
2023-05-03T08:20:59.949Z,9.681256
2023-05-03T08:21:59.960Z,9.681144
2023-05-03T08:22:59.970Z,9.681046
2023-05-03T08:23:59.918Z,9.681050
2023-05-03T08:24:59.918Z,9.681067
2023-05-03T08:25:59.897Z,9.681067
2023-05-03T08:26:59.911Z,9.680990
2023-05-03T08:27:59.914Z,9.681046
2023-05-03T08:28:59.910Z,9.681051
2023-05-03T08:29:59.883Z,9.681145
2023-05-03T08:30:59.902Z,9.681127
2023-05-03T08:31:59.873Z,9.681148
2023-05-03T08:32:59.907Z,9.681136
2023-05-03T08:33:59.837Z,9.681128
2023-05-03T08:34:59.935Z,9.681150
2023-05-03T08:35:59.815Z,9.681108
2023-05-03T08:36:59.856Z,9.681070
2023-05-03T08:37:59.789Z,9.681089
2023-05-03T08:38:59.793Z,9.681056
2023-05-03T08:39:59.777Z,9.681095
2023-05-03T08:40:59.804Z,9.681087
2023-05-03T08:41:59.761Z,9.681139
2023-05-03T08:42:59.782Z,9.681148
2023-05-03T08:43:59.770Z,9.681148
2023-05-03T08:44:59.783Z,9.681190
2023-05-03T08:45:59.731Z,9.681265
2023-05-03T08:46:59.833Z,9.681265
2023-05-03T08:47:59.744Z,9.681324
2023-05-03T08:48:59.730Z,9.681267
2023-05-03T08:49:59.712Z,9.681331
2023-05-03T08:50:59.711Z,9.681308
2023-05-03T08:51:59.687Z,9.681321
2023-05-03T08:52:59.744Z,9.681327
2023-05-03T08:53:59.698Z,9.681303
2023-05-03T08:54:59.671Z,9.681327
2023-05-03T08:55:59.662Z,9.681448
2023-05-03T08:56:59.659Z,9.681561
2023-05-03T08:57:59.651Z,9.681596
2023-05-03T08:58:59.682Z,9.681383
2023-05-03T08:59:59.647Z,9.681460
2023-05-03T09:00:59.607Z,9.681461
2023-05-03T09:01:59.641Z,9.681008
2023-05-03T09:02:59.683Z,9.681028
2023-05-03T09:03:59.656Z,9.681197
2023-05-03T09:04:59.586Z,9.681118
2023-05-03T09:05:59.561Z,9.681038
2023-05-03T09:06:59.571Z,9.681137
2023-05-03T09:07:59.543Z,9.681064
2023-05-03T09:08:59.545Z,9.680964
2023-05-03T09:09:59.563Z,9.681064
2023-05-03T09:10:59.542Z,9.680981
2023-05-03T09:11:59.498Z,9.681104
2023-05-03T09:12:59.509Z,9.681071
2023-05-03T09:13:59.519Z,9.681073
2023-05-03T09:14:59.498Z,9.681057
2023-05-03T09:15:59.509Z,9.681038
2023-05-03T09:16:59.589Z,9.680977
2023-05-03T09:17:59.500Z,9.681040
2023-05-03T09:18:59.470Z,9.681050
2023-05-03T09:19:59.487Z,9.681096
2023-05-03T09:20:59.456Z,9.681037
2023-05-03T09:21:59.448Z,9.680956
2023-05-03T09:22:59.599Z,9.681051
2023-05-03T09:23:59.409Z,9.680995
2023-05-03T09:24:59.462Z,9.680929
2023-05-03T09:25:59.390Z,9.680924
2023-05-03T09:26:59.421Z,9.681060
2023-05-03T09:27:59.415Z,9.681069
2023-05-03T09:28:59.402Z,9.681029
2023-05-03T09:29:59.387Z,9.681034
2023-05-03T09:30:59.401Z,9.681062
2023-05-03T09:31:59.359Z,9.681054
2023-05-03T09:32:59.383Z,9.681023
2023-05-03T09:33:59.369Z,9.680937
2023-05-03T09:34:59.359Z,9.680940
2023-05-03T09:35:59.328Z,9.681022
2023-05-03T09:36:59.368Z,9.681055
2023-05-03T09:37:59.320Z,9.681074
2023-05-03T09:38:59.381Z,9.681130
2023-05-03T09:39:59.293Z,9.681092
2023-05-03T09:40:59.296Z,9.681062
2023-05-03T09:41:59.281Z,9.681010
2023-05-03T09:42:59.292Z,9.681109
2023-05-03T09:43:59.258Z,9.681097
2023-05-03T09:44:59.257Z,9.681086
2023-05-03T09:45:59.283Z,9.681215
2023-05-03T09:46:59.292Z,9.681376
2023-05-03T09:47:59.256Z,9.681085
2023-05-03T09:48:59.229Z,9.681111
2023-05-03T09:49:59.211Z,9.681143
2023-05-03T09:50:59.217Z,9.681158
2023-05-03T09:51:59.215Z,9.681104
2023-05-03T09:52:59.219Z,9.680977
2023-05-03T09:53:59.177Z,9.681090
2023-05-03T09:54:59.196Z,9.681025
2023-05-03T09:55:59.201Z,9.681062
2023-05-03T09:56:59.173Z,9.680995
2023-05-03T09:57:59.149Z,9.681074
2023-05-03T09:58:59.176Z,9.681026
2023-05-03T09:59:59.119Z,9.681017
2023-05-03T10:00:59.159Z,9.680935
2023-05-03T10:01:59.144Z,9.681034
2023-05-03T10:02:59.153Z,9.681153
2023-05-03T10:03:59.148Z,9.681127
2023-05-03T10:04:59.131Z,9.681170
2023-05-03T10:05:59.084Z,9.681167
2023-05-03T10:06:59.078Z,9.681098
2023-05-03T10:07:59.052Z,9.681067
2023-05-03T10:08:59.123Z,9.681044
2023-05-03T10:09:59.050Z,9.681144
2023-05-03T10:10:59.215Z,9.681187
2023-05-03T10:11:59.082Z,9.681218
2023-05-03T10:12:59.035Z,9.681129
2023-05-03T10:13:59.005Z,9.681127
2023-05-03T10:14:59.049Z,9.681115
2023-05-03T10:15:59.024Z,9.681141
2023-05-03T10:16:59.009Z,9.681043
2023-05-03T10:17:58.988Z,9.680860
2023-05-03T10:18:59.015Z,9.680979
2023-05-03T10:19:58.954Z,9.681074
2023-05-03T10:20:58.961Z,9.680944
2023-05-03T10:21:58.960Z,9.681006
2023-05-03T10:22:58.950Z,9.680975
2023-05-03T10:23:58.949Z,9.681014
2023-05-03T10:24:58.945Z,9.680942
2023-05-03T10:25:58.930Z,9.681053
2023-05-03T10:26:58.924Z,9.680941
2023-05-03T10:27:58.968Z,9.680956
2023-05-03T10:29:00.758Z,9.680915
2023-05-03T10:29:58.920Z,9.680983
2023-05-03T10:30:58.901Z,9.681129
2023-05-03T10:31:58.872Z,9.681163
2023-05-03T10:32:58.907Z,9.681040
2023-05-03T10:33:58.898Z,9.681034
2023-05-03T10:34:58.868Z,9.681049
2023-05-03T10:35:58.830Z,9.681139
2023-05-03T10:36:58.828Z,9.681055
2023-05-03T10:37:58.841Z,9.681250
2023-05-03T10:38:58.845Z,9.681171
2023-05-03T10:39:59.644Z,9.681217
2023-05-03T10:40:58.788Z,9.681420
2023-05-03T10:41:58.805Z,9.681253
2023-05-03T10:42:58.822Z,9.681121
2023-05-03T10:43:58.809Z,9.681098
2023-05-03T10:44:58.776Z,9.681157
2023-05-03T10:45:58.800Z,9.681202
2023-05-03T10:46:58.787Z,9.681097
2023-05-03T10:47:58.738Z,9.681069
2023-05-03T10:48:58.735Z,9.680942
2023-05-03T10:49:58.712Z,9.681095
2023-05-03T10:50:58.708Z,9.680977
2023-05-03T10:51:59.207Z,9.681030
2023-05-03T10:52:58.717Z,9.681066
2023-05-03T10:53:58.665Z,9.681014
2023-05-03T10:54:58.680Z,9.681046
2023-05-03T10:55:58.642Z,9.681116
2023-05-03T10:56:58.688Z,9.681103
2023-05-03T10:57:58.686Z,9.681079
2023-05-03T10:58:58.838Z,9.681022
2023-05-03T10:59:58.643Z,9.681021
2023-05-03T11:00:58.614Z,9.681049
2023-05-03T11:01:58.688Z,9.681000
2023-05-03T11:02:58.680Z,9.680980
2023-05-03T11:03:58.644Z,9.680959
2023-05-03T11:04:58.628Z,9.681017
2023-05-03T11:05:58.563Z,9.681044
2023-05-03T11:06:58.633Z,9.680980
2023-05-03T11:07:58.552Z,9.680986
2023-05-03T11:08:58.555Z,9.681042
2023-05-03T11:09:58.519Z,9.680993
2023-05-03T11:10:58.523Z,9.681124
2023-05-03T11:11:58.570Z,9.681057
2023-05-03T11:12:58.504Z,9.681046
2023-05-03T11:13:58.563Z,9.681026
2023-05-03T11:14:58.518Z,9.681004
2023-05-03T11:15:58.515Z,9.681035
2023-05-03T11:16:58.637Z,9.680988
2023-05-03T11:17:58.514Z,9.680984
2023-05-03T11:18:58.471Z,9.681094
2023-05-03T11:19:58.431Z,9.681047
2023-05-03T11:20:58.465Z,9.681072
2023-05-03T11:21:58.422Z,9.681171
2023-05-03T11:22:58.427Z,9.681160
2023-05-03T11:23:58.413Z,9.681026
2023-05-03T11:24:58.408Z,9.680998
2023-05-03T11:25:58.408Z,9.681072
2023-05-03T11:26:58.456Z,9.681078
2023-05-03T11:27:58.387Z,9.681081
2023-05-03T11:28:58.398Z,9.681006
2023-05-03T11:29:58.393Z,9.681049
2023-05-03T11:30:58.474Z,9.680926
2023-05-03T11:31:58.399Z,9.680952
2023-05-03T11:32:58.392Z,9.680932
2023-05-03T11:33:58.325Z,9.680941
2023-05-03T11:34:58.367Z,9.680980
2023-05-03T11:35:58.300Z,9.681026
2023-05-03T11:36:58.316Z,9.681015
2023-05-03T11:37:58.295Z,9.681015
2023-05-03T11:38:58.306Z,9.681003
2023-05-03T11:39:58.307Z,9.680958
2023-05-03T11:40:58.275Z,9.680959
2023-05-03T11:41:58.256Z,9.681005
2023-05-03T11:42:58.363Z,9.681022
2023-05-03T11:44:14.417Z,9.681045